Buckland, MA (01338)

4:24 PM EDT on April 18, 2015 (GMT -0400)
Baptist Corner | | Change Station
CLOSE
Current Station
Personal Weather Station
Location: Shelburne Falls, MA
Elevation: 1102 ft
Nearby Weather Stations
Active Advisory: Special Statement

Elev 1102 ft 42.55 °N, 72.77 °W | Updated 2 minutes ago

Overcast
Overcast
71.0 °F
Feels Like 76 °F
N
4.0
Wind Variable Wind from NNW
Gusts 14.0 mph

Today
High -- | Low -- °F
--% Chance of Precip.
Yesterday
High -- | Low -- °F
Precip. -- in
6:05 AM 7:36 PM
New Moon, 0% visible
Pressure 29.82 in
Visibility 10.0 miles
Clouds Scattered Clouds 7500 ft
Mostly Cloudy 9500 ft
Heat Index 76 °F
Dew Point 40 °F
Humidity 32%
Rainfall 0.00 in
Snow Depth Not available.
UV 3 out of 12
Pollen 11.30 out of 12
Air Quality Not available.
Flu Activity Widespread
METAR KAQW 181952Z AUTO 26014G24KT 10SM SCT075 BKN095 21/04 A2981 RMK AO2 PK WND 27027/1936 SLP096 T02110039

More Conditions Fewer Conditions

Pressure 29.82 in
Visibility 10.0 miles
Clouds Scattered Clouds 7500 ft
Mostly Cloudy 9500 ft
Heat Index 76 °F
Dew Point 40 °F
Humidity 32%
Rainfall 0.00 in
Snow Depth Not available.
UV 3 out of 12
Pollen 11.30 out of 12
Air Quality Not available.
Flu Activity Widespread
METAR KAQW 181952Z AUTO 26014G24KT 10SM SCT075 BKN095 21/04 A2981 RMK AO2 PK WND 27027/1936 SLP096 T02110039

More Conditions Fewer Conditions

10-Day Weather Forecast

Almanac

Astronomy

Apr. 18, 2015 Rise Set
Actual Time
Civil Twilight
Nautical Twilight
Astronomical Twilight
Moon
Length of Visible Light
Length of Day
Tomorrow will be .
, % of the Moon is Illuminated

Today's Extremes

State Highs State Lows

Community

WunderPhotos

Upload Photos

1,814,515 photos uploaded!

WunderBlogs® & News

Nearby

Air Quality

  Air Quality AQ Index Pollutant
Not available.

Snow Depth

Station Depth Elevation

Earthquake Activity

City Distance Mag. Time & Date
Minimum magnitude displayed is 2.5.

Coastal Water Temperatures

Place Temperature

Stations

Nearby Weather Stations

Station Location Temp. Windchill Dew Point Humidity Wind Precip. Elev Updated Type
                   
Special Statement
Statement as of 4:27 AM EDT on April 18, 2015

... Elevated fire weather potential today...

There is the potential for elevated fire weather conditions today
across central and eastern interior Massachusetts as well as
northwest Rhode Island.

As temperatures warm into the low-70s by midday... relative humidity
values will to drop as low as 20 percent. Combined with breezy west-
northwest winds during the afternoon into evening hours sustained
around 15 mph with gusts around 25 mph... there is an elevated fire
risk considering the dry fuels and lack of rainfall across the
region as of late.

Caution should be used if any open burning is planned.


Sipprell